Time;durP1;ratioP1;P1;durP2;ratioP2;P2;SDS_P1;SDS_P2;PMS_P1;PMS_P2;Temp;Humidity;BMP_temperature;BMP_pressure;BME280_temperature;BME280_humidity;BME280_pressure;Samples;Min_cycle;Max_cycle;Signal;HPM_P1;HPM_P2
2024/03/12 00:01:10;;;;;;;1.50;1.50;;;;;;;;;;5107987;28;20265;-61
2024/03/12 00:03:42;;;;;;;2.73;1.27;;;;;;;;;;5104857;28;20240;-61
2024/03/12 00:06:09;;;;;;;1.40;1.40;;;;;;;;;;5104454;28;20273;-62
2024/03/12 00:08:39;;;;;;;2.83;1.93;;;;;;;;;;5111489;28;20237;-61
2024/03/12 00:11:07;;;;;;;1.33;1.33;;;;;;;;;;5105437;28;20239;-62
2024/03/12 00:13:35;;;;;;;2.50;1.23;;;;;;;;;;5107761;28;20710;-61
2024/03/12 00:16:03;;;;;;;1.20;1.20;;;;;;;;;;5094522;28;20210;-61
2024/03/12 00:18:32;;;;;;;1.60;1.50;;;;;;;;;;5103308;28;20206;-62
2024/03/12 00:21:01;;;;;;;1.83;1.67;;;;;;;;;;5102307;28;20287;-62
2024/03/12 00:23:28;;;;;;;1.83;1.17;;;;;;;;;;5090507;28;20231;-62
2024/03/12 00:25:56;;;;;;;1.53;1.43;;;;;;;;;;5092483;28;20206;-61
2024/03/12 00:28:23;;;;;;;1.17;1.07;;;;;;;;;;5095838;28;20280;-61
2024/03/12 00:30:53;;;;;;;1.63;1.53;;;;;;;;;;5101222;28;20196;-61
2024/03/12 00:33:22;;;;;;;2.27;1.70;;;;;;;;;;5092693;28;20602;-62
2024/03/12 00:35:49;;;;;;;2.37;1.97;;;;;;;;;;5092021;28;20263;-61
2024/03/12 00:38:17;;;;;;;2.37;1.70;;;;;;;;;;5092987;28;20255;-62
2024/03/12 00:40:45;;;;;;;2.00;1.90;;;;;;;;;;5093249;28;20198;-62
2024/03/12 00:43:14;;;;;;;3.70;2.17;;;;;;;;;;5108624;28;20646;-62
2024/03/12 00:45:41;;;;;;;2.30;2.13;;;;;;;;;;5112155;28;20648;-62
2024/03/12 00:48:09;;;;;;;3.03;2.83;;;;;;;;;;5112891;28;20202;-61
2024/03/12 00:50:38;;;;;;;2.33;2.13;;;;;;;;;;5113045;28;20292;-61
2024/03/12 00:53:06;;;;;;;2.43;2.23;;;;;;;;;;5109252;28;20765;-62
2024/03/12 00:55:36;;;;;;;3.53;3.00;;;;;;;;;;5099813;28;20809;-62
2024/03/12 00:58:04;;;;;;;3.77;2.70;;;;;;;;;;5092553;28;20201;-61
2024/03/12 01:00:33;;;;;;;2.70;2.60;;;;;;;;;;5091474;28;20202;-61
2024/03/12 01:03:01;;;;;;;3.10;2.90;;;;;;;;;;5091999;28;20225;-62
2024/03/12 01:05:30;;;;;;;2.13;2.00;;;;;;;;;;5097607;28;20247;-62
2024/03/12 01:07:59;;;;;;;2.57;2.40;;;;;;;;;;5103907;28;20203;-61
2024/03/12 01:10:28;;;;;;;2.63;2.40;;;;;;;;;;5112372;28;20221;-62
2024/03/12 01:12:56;;;;;;;2.63;2.43;;;;;;;;;;5113613;28;20197;-61
2024/03/12 01:15:24;;;;;;;3.57;2.87;;;;;;;;;;5111530;28;20251;-61
2024/03/12 01:17:53;;;;;;;3.70;2.57;;;;;;;;;;5110684;28;20212;-62
2024/03/12 01:20:21;;;;;;;3.27;2.40;;;;;;;;;;5104001;28;20189;-61
2024/03/12 01:22:50;;;;;;;1.80;1.70;;;;;;;;;;5112170;28;20576;-62
2024/03/12 01:25:21;;;;;;;1.90;1.80;;;;;;;;;;5093313;28;20255;-62
2024/03/12 01:27:48;;;;;;;2.40;2.20;;;;;;;;;;5112253;28;20258;-61
2024/03/12 01:30:16;;;;;;;3.57;2.40;;;;;;;;;;5106237;28;20255;-61
2024/03/12 01:32:47;;;;;;;2.20;1.67;;;;;;;;;;5100284;28;20277;-61
2024/03/12 01:35:14;;;;;;;2.10;1.90;;;;;;;;;;5091154;28;20200;-61
2024/03/12 01:37:43;;;;;;;2.10;1.90;;;;;;;;;;5091949;28;20206;-62
2024/03/12 01:40:21;;;;;;;2.43;2.23;;;;;;;;;;5091801;28;20208;-62
2024/03/12 01:42:50;;;;;;;1.50;1.40;;;;;;;;;;5099724;28;20197;-62
2024/03/12 01:45:18;;;;;;;1.03;1.03;;;;;;;;;;5098009;28;20196;-62
2024/03/12 01:47:46;;;;;;;1.23;1.20;;;8.10;99.90;;;;;;5095119;28;20228;-62
2024/03/12 01:50:13;;;;;;;2.03;2.03;;;8.10;99.90;;;;;;5091680;28;20229;-62
2024/03/12 01:52:43;;;;;;;2.00;1.33;;;8.00;99.90;;;;;;5091408;28;20193;-61
2024/03/12 01:55:11;;;;;;;2.43;1.47;;;8.00;99.90;;;;;;5102806;28;20284;-61
2024/03/12 01:57:42;;;;;;;2.10;1.90;;;7.90;99.90;;;;;;5103611;28;20293;-62
2024/03/12 02:00:13;;;;;;;4.13;1.83;;;8.10;99.90;;;;;;5112240;28;20201;-61
2024/03/12 02:02:45;;;;;;;2.10;2.00;;;8.20;99.90;;;;;;5111751;28;20238;-62
2024/03/12 02:05:13;;;;;;;2.23;2.13;;;8.10;99.90;;;;;;5111170;28;20223;-62
2024/03/12 02:07:45;;;;;;;2.93;2.33;;;7.90;99.90;;;;;;5107483;28;20197;-61
2024/03/12 02:10:13;;;;;;;1.57;1.20;;;8.00;99.90;;;;;;5100228;28;20218;-62
2024/03/12 02:12:40;;;;;;;0.83;0.73;;;8.10;99.90;;;;;;5093594;28;20201;-62
2024/03/12 02:15:08;;;;;;;2.83;1.63;;;8.10;99.90;;;;;;5095803;28;20282;-61
2024/03/12 02:17:36;;;;;;;1.30;1.00;;;8.10;99.90;;;;;;5094571;28;20198;-62
2024/03/12 02:20:07;;;;;;;0.90;0.90;;;8.10;99.90;;;;;;5101985;28;20223;-62
2024/03/12 02:22:36;;;;;;;2.33;0.70;;;8.10;99.90;;;;;;5099802;28;20856;-61
2024/03/12 02:25:05;;;;;;;0.80;0.80;;;8.10;99.90;;;;;;5092893;28;20287;-61
2024/03/12 02:27:32;;;;;;;1.27;1.20;;;8.20;99.90;;;;;;5094505;28;20292;-62
2024/03/12 02:29:59;;;;;;;1.13;0.97;;;8.20;99.90;;;;;;5093278;28;20207;-62
2024/03/12 02:32:26;;;;;;;0.73;0.73;;;8.20;99.90;;;;;;5098149;28;20248;-62
2024/03/12 02:34:53;;;;;;;0.80;0.80;;;8.10;99.90;;;;;;5102910;28;20224;-62
2024/03/12 02:37:21;;;;;;;2.23;1.00;;;8.10;99.90;;;;;;5094327;28;20205;-62
2024/03/12 02:39:48;;;;;;;1.00;1.00;;;8.10;99.90;;;;;;5095176;28;20255;-62
2024/03/12 02:42:16;;;;;;;0.70;0.70;;;8.10;99.90;;;;;;5103958;28;20202;-61
2024/03/12 02:44:43;;;;;;;0.90;0.90;;;8.10;99.90;;;;;;5105524;28;20685;-62
2024/03/12 02:47:10;;;;;;;2.30;1.00;;;8.10;99.90;;;;;;5105762;28;20673;-62
2024/03/12 02:49:38;;;;;;;1.23;1.10;;;8.10;99.90;;;;;;5114826;28;20206;-62
2024/03/12 02:52:05;;;;;;;0.73;0.73;;;8.10;99.90;;;;;;5111237;28;20239;-61
2024/03/12 02:54:32;;;;;;;0.90;0.90;;;8.10;99.90;;;;;;5103286;28;20214;-62
2024/03/12 02:56:59;;;;;;;2.80;1.23;;;8.10;99.90;;;;;;5094028;28;20208;-61
2024/03/12 02:59:28;;;;;;;1.63;1.00;;;8.10;99.90;;;;;;5096280;28;20207;-61
2024/03/12 03:01:55;;;;;;;1.10;1.10;;;8.10;99.90;;;;;;5098386;28;20220;-61
2024/03/12 03:04:23;;;;;;;1.27;1.17;;;8.10;99.90;;;;;;5102606;28;20309;-62
2024/03/12 03:06:52;;;;;;;0.60;0.60;;;8.20;99.90;;;;;;5093592;28;20207;-61
2024/03/12 03:09:20;;;;;;;0.97;0.97;;;8.10;99.90;;;;;;5094416;28;20234;-62
2024/03/12 03:11:47;;;;;;;1.20;1.10;;;8.00;99.90;;;;;;5094516;28;20622;-61
2024/03/12 03:14:14;;;;;;;1.20;1.10;;;8.10;99.90;;;;;;5094786;28;20565;-61
2024/03/12 03:16:43;;;;;;;0.77;0.73;;;8.00;99.90;;;;;;5105497;28;20197;-61
2024/03/12 03:19:10;;;;;;;1.57;1.10;;;8.10;99.90;;;;;;5094298;28;20248;-62
2024/03/12 03:21:37;;;;;;;1.57;1.07;;;7.90;99.90;;;;;;5094198;28;20200;-62
2024/03/12 03:24:05;;;;;;;0.90;0.90;;;8.10;99.90;;;;;;5093321;28;20223;-61
2024/03/12 03:26:32;;;;;;;0.77;0.60;;;8.30;99.90;;;;;;5093329;28;20293;-62
2024/03/12 03:28:59;;;;;;;1.50;0.77;;;8.30;99.90;;;;;;5098933;28;20202;-61
2024/03/12 03:31:26;;;;;;;0.60;0.60;;;8.40;99.90;;;;;;5108300;28;20673;-62
2024/03/12 03:33:58;;;;;;;0.63;0.60;;;8.40;99.90;;;;;;5112656;28;20278;-61
2024/03/12 03:36:26;;;;;;;1.43;1.30;;;8.30;99.90;;;;;;5113730;28;20238;-61
2024/03/12 03:38:53;;;;;;;5.83;3.37;;;8.30;99.90;;;;;;5114238;28;20936;-61
2024/03/12 03:41:20;;;;;;;2.43;1.00;;;8.50;99.90;;;;;;5107104;28;20224;-61
2024/03/12 03:43:47;;;;;;;1.57;1.47;;;8.70;99.90;;;;;;5110971;28;20312;-61
2024/03/12 03:46:14;;;;;;;16.17;7.97;;;8.60;99.90;;;;;;5113340;28;20202;-62
2024/03/12 03:48:41;;;;;;;1.07;1.03;;;8.60;99.90;;;;;;5114076;28;20202;-61
2024/03/12 03:51:10;;;;;;;1.07;0.73;;;8.60;99.90;;;;;;5114958;28;20203;-61
2024/03/12 03:53:37;;;;;;;0.87;0.70;;;8.80;99.90;;;;;;5107001;28;20732;-64
2024/03/12 03:56:11;;;;;;;8.73;5.17;;;8.60;99.90;;;;;;5112627;28;20262;-62
2024/03/12 03:58:38;;;;;;;6.67;5.50;;;8.60;99.90;;;;;;5114194;28;20204;-61
2024/03/12 04:01:05;;;;;;;2.03;1.83;;;8.50;99.90;;;;;;5113924;28;20201;-62
2024/03/12 04:03:32;;;;;;;0.90;0.70;;;8.40;99.90;;;;;;5105604;28;20256;-61
2024/03/12 04:06:00;;;;;;;0.70;0.70;;;8.30;99.90;;;;;;5111391;28;20585;-62
2024/03/12 04:08:30;;;;;;;0.70;0.60;;;8.20;99.90;;;;;;5114071;28;20212;-61
2024/03/12 04:10:57;;;;;;;0.80;0.80;;;8.20;99.90;;;;;;5113396;28;20198;-61
2024/03/12 04:13:24;;;;;;;0.73;0.73;;;8.20;99.90;;;;;;5112036;28;20227;-61
2024/03/12 04:15:51;;;;;;;1.03;1.03;;;8.20;99.90;;;;;;5104057;28;20786;-62
2024/03/12 04:18:18;;;;;;;0.90;0.90;;;8.10;99.90;;;;;;5113549;28;20650;-62
2024/03/12 04:20:47;;;;;;;0.90;0.90;;;8.10;99.90;;;;;;5113323;28;20204;-61
2024/03/12 04:23:14;;;;;;;1.63;1.13;;;8.00;99.90;;;;;;5112319;28;20279;-62
2024/03/12 04:25:43;;;;;;;1.03;1.03;;;8.00;99.90;;;;;;5102830;28;20762;-62
2024/03/12 04:28:15;;;;;;;0.70;0.70;;;7.90;99.90;;;;;;5090896;28;20251;-62
2024/03/12 04:30:43;;;;;;;0.77;0.77;;;7.00;99.90;;;;;;5092875;28;20717;-61
2024/03/12 04:33:11;;;;;;;0.97;0.90;;;;;;;;;;5101823;28;20675;-62
2024/03/12 04:35:38;;;;;;;2.07;0.70;;;;;;;;;;5110619;28;20335;-62
2024/03/12 04:38:07;;;;;;;1.00;1.00;;;8.40;99.90;;;;;;5101809;28;20275;-61
2024/03/12 04:40:34;;;;;;;0.70;0.70;;;7.60;99.90;;;;;;5092720;28;20200;-61
2024/03/12 04:43:03;;;;;;;0.77;0.77;;;7.60;99.90;;;;;;5092483;28;20287;-61
2024/03/12 04:45:31;;;;;;;0.83;0.57;;;7.50;99.90;;;;;;5091624;28;20311;-61
2024/03/12 04:47:58;;;;;;;1.30;0.77;;;7.50;99.90;;;;;;5092822;28;20286;-62
2024/03/12 04:50:25;;;;;;;1.13;0.50;;;7.40;99.90;;;;;;5108663;28;20249;-62
2024/03/12 04:52:52;;;;;;;0.67;0.67;;;7.30;99.90;;;;;;5110139;28;20201;-61
2024/03/12 04:55:19;;;;;;;0.60;0.60;;;7.20;99.90;;;;;;5112176;28;20216;-62
2024/03/12 04:57:46;;;;;;;0.70;0.70;;;7.20;99.90;;;;;;5112830;28;20258;-62
2024/03/12 05:00:18;;;;;;;0.80;0.70;;;7.10;99.90;;;;;;5110781;28;20255;-62
2024/03/12 05:02:49;;;;;;;0.60;0.60;;;7.10;99.90;;;;;;5100393;28;20206;-61
2024/03/12 05:05:18;;;;;;;0.90;0.90;;;7.00;99.90;;;;;;5111905;28;20298;-61
2024/03/12 05:07:48;;;;;;;1.10;1.10;;;7.00;99.90;;;;;;5112688;28;20198;-61
2024/03/12 05:10:15;;;;;;;0.67;0.67;;;6.90;99.90;;;;;;5113717;28;20703;-61
2024/03/12 05:12:46;;;;;;;0.57;0.53;;;;;;;;;;5110618;28;20223;-61
2024/03/12 05:15:14;;;;;;;2.27;0.90;;;6.90;99.90;;;;;;5101281;28;20288;-62
2024/03/12 05:17:45;;;;;;;0.80;0.80;;;7.10;99.90;;;;;;5096249;28;20271;-61
2024/03/12 05:20:14;;;;;;;1.27;1.23;;;7.10;99.90;;;;;;5094797;28;20217;-61
2024/03/12 05:22:43;;;;;;;0.60;0.60;;;7.00;99.90;;;;;;5103927;28;20630;-61
2024/03/12 05:25:19;;;;;;;0.70;0.70;;;5.80;99.90;;;;;;5103178;28;20214;-61
2024/03/12 05:27:47;;;;;;;0.80;0.80;;;6.10;99.90;;;;;;5110575;28;20192;-61
2024/03/12 05:30:16;;;;;;;1.17;0.80;;;6.90;99.90;;;;;;5100567;28;20206;-61
2024/03/12 05:32:48;;;;;;;0.90;0.90;;;6.90;99.90;;;;;;5102822;28;20284;-61
2024/03/12 05:35:20;;;;;;;1.03;0.80;;;6.90;99.90;;;;;;5090922;28;20660;-62
2024/03/12 05:38:09;;;;;;;1.37;1.20;;;7.00;99.90;;;;;;5110269;28;20297;-61
2024/03/12 05:40:46;;;;;;;1.10;1.00;;;7.00;99.90;;;;;;5093962;28;20657;-61
2024/03/12 05:48:49;;;;;;;0.70;0.70;;;7.00;99.90;;;;;;5099726;28;20599;-61
2024/03/12 05:51:16;;;;;;;1.27;1.07;;;7.00;99.90;;;;;;5109425;28;20286;-61
2024/03/12 05:53:44;;;;;;;7.90;3.17;;;7.10;99.90;;;;;;5115731;28;20213;-61
2024/03/12 05:56:12;;;;;;;10.73;5.80;;;7.10;99.90;;;;;;5115326;28;20319;-61
2024/03/12 05:58:40;;;;;;;10.30;3.93;;;7.10;99.90;;;;;;5115751;28;20289;-61
2024/03/12 06:01:08;;;;;;;9.93;4.93;;;;;;;;;;5096424;28;20201;-61
2024/03/12 06:03:36;;;;;;;6.07;2.23;;;6.40;99.90;;;;;;5108496;28;20225;-61
2024/03/12 06:06:04;;;;;;;2.27;2.07;;;7.40;99.90;;;;;;5114834;28;20700;-61
2024/03/12 06:08:32;;;;;;;2.20;1.10;;;7.70;99.90;;;;;;5115726;28;20191;-61
2024/03/12 06:10:59;;;;;;;2.37;2.17;;;7.50;99.90;;;;;;5115949;28;20213;-61
2024/03/12 06:13:27;;;;;;;1.97;1.20;;;7.40;99.90;;;;;;5115692;28;20228;-61
2024/03/12 06:15:54;;;;;;;1.43;1.33;;;7.50;99.90;;;;;;5111422;28;20292;-61
2024/03/12 06:18:23;;;;;;;1.43;1.33;;;7.50;99.90;;;;;;5115703;28;20791;-61
2024/03/12 06:20:50;;;;;;;1.20;1.20;;;7.50;99.90;;;;;;5112106;28;20289;-61
2024/03/12 06:23:18;;;;;;;1.23;1.20;;;7.50;99.90;;;;;;5113871;28;20216;-61
2024/03/12 06:25:46;;;;;;;1.17;1.07;;;7.50;99.90;;;;;;5102518;28;20335;-61
2024/03/12 06:28:14;;;;;;;1.47;1.10;;;7.50;99.90;;;;;;5103928;28;20285;-61
2024/03/12 06:30:42;;;;;;;0.70;0.70;;;7.50;99.90;;;;;;5109445;28;20198;-61
2024/03/12 06:33:11;;;;;;;1.13;1.03;;;7.50;99.90;;;;;;5099390;28;20218;-62
2024/03/12 06:35:41;;;;;;;1.10;1.10;;;7.60;99.90;;;;;;5107243;28;20926;-62
2024/03/12 06:38:08;;;;;;;1.90;1.50;;;7.70;99.90;;;;;;5104701;28;20292;-61
2024/03/12 06:40:35;;;;;;;1.47;1.47;;;7.80;99.90;;;;;;5105230;28;20198;-61
2024/03/12 06:43:02;;;;;;;2.03;1.93;;;7.80;99.90;;;;;;5098880;28;20229;-61
2024/03/12 06:45:31;;;;;;;3.10;1.73;;;7.80;99.90;;;;;;5101791;28;20306;-61
2024/03/12 06:48:00;;;;;;;1.47;1.40;;;7.80;99.90;;;;;;5103053;28;20631;-61
2024/03/12 06:50:27;;;;;;;1.77;1.67;;;7.80;99.90;;;;;;5105979;28;20204;-61
2024/03/12 06:52:56;;;;;;;1.97;1.83;;;7.80;99.90;;;;;;5101822;28;20209;-61
2024/03/12 06:55:24;;;;;;;11.77;2.17;;;7.80;99.90;;;;;;5105384;28;20201;-61
2024/03/12 06:57:55;;;;;;;1.53;1.47;;;7.80;99.90;;;;;;5106216;28;20609;-61
2024/03/12 07:00:26;;;;;;;1.73;1.50;;;7.80;99.90;;;;;;5102965;28;20561;-61
2024/03/12 07:02:54;;;;;;;1.50;1.43;;;7.80;99.90;;;;;;5103672;28;20253;-62
2024/03/12 07:05:23;;;;;;;2.83;1.90;;;7.80;99.90;;;;;;5109003;28;20361;-61
2024/03/12 07:07:50;;;;;;;3.70;1.70;;;7.90;99.90;;;;;;5102102;28;20206;-61
2024/03/12 07:10:19;;;;;;;1.73;1.40;;;7.90;99.90;;;;;;5100832;28;20614;-61
2024/03/12 07:12:47;;;;;;;5.70;2.87;;;7.90;99.90;;;;;;5108541;28;20648;-61
2024/03/12 07:15:16;;;;;;;2.57;2.33;;;7.90;99.90;;;;;;5109292;28;20206;-62
2024/03/12 07:17:43;;;;;;;3.20;2.47;;;7.90;99.90;;;;;;5094626;28;20484;-65
2024/03/12 07:20:15;;;;;;;3.53;3.23;;;7.90;99.90;;;;;;5103416;28;20201;-68
2024/03/12 07:22:46;;;;;;;5.00;2.37;;;7.90;99.90;;;;;;5105664;28;20201;-67
2024/03/12 07:25:13;;;;;;;2.53;1.83;;;8.00;99.90;;;;;;5100758;28;20219;-65
2024/03/12 07:27:41;;;;;;;2.80;1.77;;;8.10;99.90;;;;;;5098794;28;20682;-65
2024/03/12 07:30:10;;;;;;;3.13;2.83;;;8.10;99.90;;;;;;5107337;28;20207;-65
2024/03/12 07:32:42;;;;;;;1.83;1.73;;;8.10;99.90;;;;;;5109903;28;20213;-65
2024/03/12 07:35:09;;;;;;;7.07;2.60;;;8.10;99.90;;;;;;5100883;28;20285;-65
2024/03/12 07:37:39;;;;;;;2.60;2.40;;;8.20;99.90;;;;;;5111510;28;20202;-65
2024/03/12 07:40:09;;;;;;;3.20;2.67;;;8.10;99.90;;;;;;5096733;28;20207;-67
2024/03/12 07:42:41;;;;;;;3.53;3.23;;;8.20;99.90;;;;;;5105898;28;20294;-65
2024/03/12 07:45:10;;;;;;;6.50;3.17;;;8.10;99.90;;;;;;5100076;28;21558;-66
2024/03/12 07:47:39;;;;;;;2.80;2.60;;;8.10;99.90;;;;;;5101244;28;20612;-66
2024/03/12 07:50:08;;;;;;;6.50;2.70;;;8.10;99.90;;;;;;5103368;28;20207;-67
2024/03/12 07:52:35;;;;;;;2.30;2.10;;;8.10;99.90;;;;;;5108171;28;20274;-67
2024/03/12 07:55:02;;;;;;;5.40;2.97;;;8.10;99.90;;;;;;5102112;28;20256;-67
2024/03/12 07:57:31;;;;;;;5.87;2.90;;;8.20;99.90;;;;;;5100179;28;20262;-67
2024/03/12 07:59:58;;;;;;;2.63;2.43;;;8.10;99.90;;;;;;5105365;28;20231;-67
2024/03/12 08:02:27;;;;;;;2.27;2.17;;;8.10;99.90;;;;;;5105592;28;20293;-69
2024/03/12 08:04:54;;;;;;;5.87;3.10;;;8.10;99.90;;;;;;5101172;28;20226;-69
2024/03/12 08:07:21;;;;;;;4.00;2.00;;;8.00;99.90;;;;;;5106836;28;20202;-68
2024/03/12 08:09:49;;;;;;;2.97;1.67;;;8.00;99.90;;;;;;5096862;28;20610;-69
2024/03/12 08:12:16;;;;;;;2.17;2.00;;;8.00;99.90;;;;;;5104988;28;20199;-69
2024/03/12 08:14:44;;;;;;;2.97;2.20;;;7.90;99.90;;;;;;5103097;28;20223;-69
2024/03/12 08:17:13;;;;;;;2.70;2.20;;;7.90;99.90;;;;;;5100862;28;20202;-66
2024/03/12 08:19:43;;;;;;;1.80;1.70;;;7.80;99.90;;;;;;5103027;28;20756;-68
2024/03/12 08:22:10;;;;;;;1.63;1.53;;;8.00;99.90;;;;;;5107226;28;20201;-67
2024/03/12 08:24:38;;;;;;;1.97;1.70;;;8.00;99.90;;;;;;5105806;28;20221;-69
2024/03/12 08:27:06;;;;;;;1.97;1.87;;;8.00;99.90;;;;;;5100739;28;20217;-68
2024/03/12 08:29:33;;;;;;;2.40;2.30;;;8.00;99.90;;;;;;5100213;28;20203;-63
2024/03/12 08:32:00;;;;;;;2.83;2.70;;;8.00;99.90;;;;;;5096775;28;20256;-63
2024/03/12 08:34:27;;;;;;;3.03;1.93;;;8.10;99.90;;;;;;5105159;28;20218;-67
2024/03/12 08:36:56;;;;;;;1.67;1.57;;;8.10;99.90;;;;;;5107148;28;20213;-68
2024/03/12 08:39:27;;;;;;;2.03;1.53;;;8.20;99.90;;;;;;5097559;28;20201;-69
2024/03/12 08:41:55;;;;;;;3.97;1.80;;;8.10;99.90;;;;;;5105088;28;20233;-68
2024/03/12 08:44:22;;;;;;;3.70;2.47;;;8.10;99.90;;;;;;5098240;28;20308;-70
2024/03/12 08:46:49;;;;;;;1.97;1.87;;;8.20;99.90;;;;;;5102149;28;20233;-69
2024/03/12 08:49:16;;;;;;;4.23;2.10;;;8.20;99.90;;;;;;5103583;28;20271;-68
2024/03/12 08:51:43;;;;;;;2.00;1.90;;;8.20;99.90;;;;;;5097168;28;20198;-68
2024/03/12 08:54:13;;;;;;;4.10;2.03;;;8.30;99.90;;;;;;5105937;28;20217;-67
2024/03/12 08:56:42;;;;;;;2.70;2.10;;;8.30;99.90;;;;;;5094106;28;20195;-69
2024/03/12 08:59:13;;;;;;;2.37;2.27;;;8.30;99.90;;;;;;5104326;28;20293;-68
2024/03/12 09:01:40;;;;;;;1.93;1.83;;;8.20;99.90;;;;;;5104518;28;20191;-68
2024/03/12 09:04:07;;;;;;;1.73;1.63;;;8.40;99.90;;;;;;5110992;28;20275;-68
2024/03/12 09:06:35;;;;;;;2.67;2.47;;;;;;;;;;5111413;28;20236;-68
2024/03/12 09:09:02;;;;;;;2.40;2.30;;;8.50;99.90;;;;;;5099004;28;20238;-68
2024/03/12 09:11:30;;;;;;;3.77;2.50;;;8.60;99.90;;;;;;5101066;28;20198;-68
2024/03/12 09:13:57;;;;;;;2.87;2.60;;;8.70;99.90;;;;;;5094043;28;20296;-70
2024/03/12 09:16:24;;;;;;;4.80;2.60;;;8.80;99.90;;;;;;5098231;28;20331;-69
2024/03/12 09:18:53;;;;;;;2.10;2.00;;;8.80;99.90;;;;;;5092844;28;20203;-63
2024/03/12 09:21:20;;;;;;;6.63;2.47;;;9.00;99.90;;;;;;5103541;28;20202;-64
2024/03/12 09:23:47;;;;;;;3.80;2.40;;;9.10;99.90;;;;;;5110611;28;20636;-62
2024/03/12 09:26:14;;;;;;;4.33;2.63;;;9.20;99.90;;;;;;5091351;28;20218;-63
2024/03/12 09:28:43;;;;;;;2.73;2.20;;;9.90;99.90;;;;;;5110816;28;20201;-62
2024/03/12 09:31:09;;;;;;;2.67;2.57;;;9.20;99.90;;;;;;5109904;28;20207;-62
2024/03/12 09:33:38;;;;;;;2.90;2.10;;;9.10;99.90;;;;;;5100853;28;20220;-62
2024/03/12 09:36:05;;;;;;;3.33;2.40;;;9.10;99.90;;;;;;5108947;28;20294;-62
2024/03/12 09:38:33;;;;;;;2.63;2.43;;;7.90;99.90;;;;;;5109273;28;20205;-62
2024/03/12 09:41:03;;;;;;;2.67;2.50;;;8.90;99.90;;;;;;5101799;28;20214;-62
2024/03/12 09:43:35;;;;;;;2.67;2.57;;;8.90;99.90;;;;;;5101186;28;20731;-62
2024/03/12 09:46:05;;;;;;;5.40;3.50;;;8.90;99.90;;;;;;5094392;28;20278;-62
2024/03/12 09:48:32;;;;;;;4.10;3.10;;;9.00;99.90;;;;;;5096117;28;20297;-61
2024/03/12 09:50:59;;;;;;;3.43;3.13;;;9.10;99.90;;;;;;5098787;28;20266;-62
2024/03/12 09:53:27;;;;;;;3.17;2.97;;;9.00;99.90;;;;;;5094636;28;20214;-62
2024/03/12 09:55:55;;;;;;;2.80;2.60;;;;;;;;;;5101799;28;20262;-63
2024/03/12 09:58:22;;;;;;;3.97;2.93;;;8.80;99.90;;;;;;5102516;28;20205;-62
2024/03/12 10:00:49;;;;;;;3.60;3.17;;;8.80;99.90;;;;;;5106886;28;20197;-62
2024/03/12 10:03:19;;;;;;;5.03;4.57;;;8.90;99.90;;;;;;5100734;28;20227;-62
2024/03/12 10:05:47;;;;;;;3.73;3.43;;;8.90;99.90;;;;;;5110092;28;20218;-63
2024/03/12 10:08:16;;;;;;;3.47;3.27;;;9.20;99.90;;;;;;5099198;28;20638;-62
2024/03/12 10:10:44;;;;;;;4.10;3.90;;;9.00;99.90;;;;;;5101550;28;20223;-62
2024/03/12 10:13:19;;;;;;;3.73;3.43;;;9.20;99.90;;;;;;5103413;28;20261;-62
2024/03/12 10:15:51;;;;;;;3.67;3.47;;;9.20;99.90;;;;;;5094335;28;20227;-62
2024/03/12 10:18:20;;;;;;;3.07;2.90;;;9.20;99.90;;;;;;5095536;28;20666;-62
2024/03/12 10:20:49;;;;;;;5.73;3.13;;;9.30;99.90;;;;;;5100959;28;20205;-62
2024/03/12 10:23:18;;;;;;;2.73;2.63;;;9.30;99.90;;;;;;5098822;28;20218;-61
2024/03/12 10:25:45;;;;;;;3.20;3.00;;;9.30;99.90;;;;;;5095388;28;20202;-62
2024/03/12 10:28:16;;;;;;;3.43;3.20;;;9.40;99.90;;;;;;5101745;28;20225;-62
2024/03/12 10:30:45;;;;;;;3.07;2.87;;;9.40;99.90;;;;;;5101222;28;20208;-62
2024/03/12 10:33:17;;;;;;;3.10;2.87;;;9.40;99.90;;;;;;5098369;28;20221;-62
2024/03/12 10:35:46;;;;;;;2.90;2.57;;;9.30;99.90;;;;;;5104192;28;20292;-62
2024/03/12 10:38:15;;;;;;;4.33;2.53;;;9.30;99.90;;;;;;5109122;28;20665;-62
2024/03/12 10:40:42;;;;;;;2.40;2.30;;;9.20;99.90;;;;;;5104698;28;20221;-62
2024/03/12 10:43:09;;;;;;;4.20;2.73;;;9.30;99.90;;;;;;5102308;28;20257;-62
2024/03/12 10:45:38;;;;;;;2.40;2.30;;;9.40;99.90;;;;;;5099488;28;20207;-62
2024/03/12 10:48:09;;;;;;;4.70;2.27;;;9.40;99.90;;;;;;5103066;28;20531;-62
2024/03/12 10:50:40;;;;;;;3.93;2.37;;;9.30;99.90;;;;;;5107579;28;20195;-61
2024/03/12 10:53:11;;;;;;;2.70;2.50;;;9.10;99.90;;;;;;5106517;28;20645;-62
2024/03/12 10:55:39;;;;;;;2.83;0.90;;;9.10;99.90;;;;;;5103928;28;20221;-62
2024/03/12 10:58:08;;;;;;;4.03;1.33;;;9.20;99.90;;;;;;5103161;28;20648;-62
2024/03/12 11:00:39;;;;;;;3.40;1.23;;;9.20;99.90;;;;;;5102393;28;20222;-61
2024/03/12 11:03:08;;;;;;;0.50;0.50;;;9.10;99.90;;;;;;5094901;28;20255;-62
2024/03/12 11:05:38;;;;;;;0.90;0.80;;;9.20;99.90;;;;;;5106590;28;20205;-62
2024/03/12 11:08:09;;;;;;;0.70;0.70;;;9.20;99.90;;;;;;5104386;28;20231;-62
2024/03/12 11:10:38;;;;;;;1.23;0.93;;;9.00;99.90;;;;;;5099341;28;20200;-62
2024/03/12 11:13:07;;;;;;;1.60;0.40;;;9.30;99.90;;;;;;5107618;28;20244;-63
2024/03/12 11:15:35;;;;;;;1.80;0.87;;;9.30;99.90;;;;;;5104020;28;20205;-62
2024/03/12 11:18:05;;;;;;;0.40;0.30;;;9.30;99.90;;;;;;5102882;28;20289;-62
2024/03/12 11:20:33;;;;;;;0.77;0.30;;;9.30;99.90;;;;;;5106362;28;20206;-62
2024/03/12 11:23:01;;;;;;;0.20;0.20;;;9.30;99.90;;;;;;5104395;28;20572;-62
2024/03/12 11:25:32;;;;;;;0.50;0.23;;;9.40;99.90;;;;;;5096601;28;20781;-62
2024/03/12 11:28:20;;;;;;;1.17;0.30;;;9.40;99.90;;;;;;5104626;28;20219;-61
2024/03/12 11:30:48;;;;;;;2.67;2.03;;;9.30;99.90;;;;;;5100850;28;20198;-61
2024/03/12 11:33:49;;;;;;;3.53;1.33;;;9.30;99.90;;;;;;5101550;28;20303;-61
2024/03/12 11:36:32;;;;;;;11.13;8.10;;;9.30;99.90;;;;;;5092647;28;20191;-61
2024/03/12 11:39:11;;;;;;;6.40;5.10;;;9.30;99.90;;;;;;5105315;28;20217;-61
2024/03/12 11:42:14;;;;;;;0.70;0.70;;;9.20;99.90;;;;;;5106746;28;20291;-61
2024/03/12 11:44:52;;;;;;;1.50;1.43;;;9.10;99.90;;;;;;5100319;28;20243;-61
2024/03/12 11:47:36;;;;;;;1.00;0.50;;;9.00;99.90;;;;;;5100387;28;20224;-61
2024/03/12 11:50:07;;;;;;;1.57;0.27;;;9.00;99.90;;;;;;5102044;28;20205;-61
2024/03/12 11:52:35;;;;;;;0.37;0.37;;;9.00;99.90;;;;;;5102721;28;20204;-61
2024/03/12 11:55:03;;;;;;;0.40;0.40;;;9.10;99.90;;;;;;5104389;28;20266;-62
2024/03/12 11:57:31;;;;;;;0.40;0.40;;;9.20;99.90;;;;;;5103366;28;20195;-61
2024/03/12 11:59:59;;;;;;;0.50;0.50;;;9.30;99.90;;;;;;5098665;28;20590;-62
2024/03/12 12:02:27;;;;;;;0.63;0.63;;;9.30;99.90;;;;;;5105166;28;20199;-62
2024/03/12 12:04:55;;;;;;;0.63;0.63;;;9.40;99.90;;;;;;5104908;28;20627;-61
2024/03/12 12:07:23;;;;;;;2.90;0.50;;;9.40;99.90;;;;;;5100010;28;20210;-61
2024/03/12 12:09:51;;;;;;;0.57;0.57;;;9.50;99.90;;;;;;5099486;28;20207;-62
2024/03/12 12:12:19;;;;;;;0.40;0.40;;;9.50;99.90;;;;;;5108299;28;20198;-61
2024/03/12 12:14:48;;;;;;;0.83;0.67;;;9.60;99.90;;;;;;5104181;28;20247;-61
2024/03/12 12:17:21;;;;;;;2.00;0.67;;;9.70;99.90;;;;;;5098026;28;20282;-61
2024/03/12 12:20:04;;;;;;;0.97;0.87;;;9.90;99.90;;;;;;5103214;28;20206;-61
2024/03/12 12:22:32;;;;;;;1.30;0.80;;;9.90;99.90;;;;;;5100806;28;20202;-61
2024/03/12 12:25:02;;;;;;;1.90;0.40;;;10.00;99.90;;;;;;5105598;28;20631;-62
2024/03/12 12:27:32;;;;;;;2.17;0.80;;;10.10;99.90;;;;;;5102455;28;20221;-61
2024/03/12 12:29:59;;;;;;;0.63;0.30;;;10.20;99.90;;;;;;5104567;28;20226;-61
2024/03/12 12:32:28;;;;;;;2.97;0.90;;;10.30;99.90;;;;;;5100035;28;20248;-62
2024/03/12 12:34:56;;;;;;;0.90;0.80;;;10.30;99.90;;;;;;5102177;28;20481;-63
2024/03/12 12:37:24;;;;;;;2.77;0.90;;;10.30;99.90;;;;;;5098357;28;20268;-63
2024/03/12 12:39:51;;;;;;;1.03;0.50;;;10.20;99.90;;;;;;5102488;28;20225;-63
2024/03/12 12:42:19;;;;;;;0.60;0.57;;;10.30;99.90;;;;;;5094594;28;20225;-63
2024/03/12 12:44:51;;;;;;;0.93;0.63;;;10.30;99.90;;;;;;5105446;28;20247;-67
2024/03/12 12:47:18;;;;;;;0.60;0.40;;;10.40;99.90;;;;;;5103690;28;20229;-66
2024/03/12 12:49:54;;;;;;;0.97;0.40;;;10.30;99.90;;;;;;5098234;28;20275;-66
2024/03/12 12:52:23;;;;;;;0.70;0.70;;;10.40;99.90;;;;;;5101314;28;20194;-67
2024/03/12 12:54:57;;;;;;;1.60;0.93;;;10.60;99.90;;;;;;5095516;28;20219;-69
2024/03/12 12:57:27;;;;;;;0.93;0.60;;;10.50;99.90;;;;;;5103072;28;20219;-67
2024/03/12 12:59:55;;;;;;;3.27;0.60;;;10.60;99.90;;;;;;5098773;28;20204;-67
2024/03/12 13:02:23;;;;;;;0.83;0.83;;;10.60;99.90;;;;;;5102007;28;20202;-68
2024/03/12 13:04:57;;;;;;;0.77;0.77;;;10.80;99.90;;;;;;5099858;28;20342;-68
2024/03/12 13:07:30;;;;;;;1.10;1.10;;;10.90;99.90;;;;;;5101771;28;20211;-68
2024/03/12 13:09:59;;;;;;;0.90;0.50;;;11.10;99.90;;;;;;5102238;28;20202;-68
2024/03/12 13:12:28;;;;;;;1.10;1.00;;;11.30;99.90;;;;;;5099004;28;20203;-69
2024/03/12 13:14:55;;;;;;;0.60;0.53;;;11.40;99.90;;;;;;5101852;28;20275;-66
2024/03/12 13:17:22;;;;;;;0.87;0.87;;;11.50;99.90;;;;;;5102878;28;20856;-67
2024/03/12 13:19:49;;;;;;;0.70;0.70;;;11.70;99.90;;;;;;5098344;28;20200;-61
2024/03/12 13:22:17;;;;;;;3.07;0.80;;;11.70;99.90;;;;;;5102612;28;20198;-61
2024/03/12 13:24:44;;;;;;;2.43;0.97;;;11.70;99.90;;;;;;5099486;28;20271;-61